Time;durP1;ratioP1;P1;durP2;ratioP2;P2;SDS_P1;SDS_P2;PMS_P1;PMS_P2;Temp;Humidity;BMP_temperature;BMP_pressure;BME280_temperature;BME280_humidity;BME280_pressure;Samples;Min_cycle;Max_cycle;Signal;HPM_P1;HPM_P2
2022/12/17 13:08:18;;;;;;;18.63;11.05;;;;;;;-3.30;73.27;100452.06;6146579;23;20203;-83
2022/12/17 13:10:45;;;;;;;18.20;10.02;;;;;;;-3.35;73.45;100446.91;6146726;23;20200;-82
2022/12/17 13:13:22;;;;;;;18.70;10.45;;;;;;;-3.39;73.39;100445.16;6146610;23;20187;-83
2022/12/17 13:15:54;;;;;;;23.10;12.15;;;;;;;-3.43;73.48;100437.41;6146718;23;20174;-82
2022/12/17 13:18:27;;;;;;;25.08;12.60;;;;;;;-3.47;73.09;100430.56;6147121;23;20260;-83
2022/12/17 13:21:03;;;;;;;19.35;10.95;;;;;;;-3.50;73.22;100443.38;6146626;23;20191;-82
2022/12/17 13:23:35;;;;;;;32.05;12.27;;;;;;;-3.55;73.43;100453.59;6146163;23;20281;-82
2022/12/17 13:26:19;;;;;;;17.77;9.18;;;;;;;-3.54;73.59;100459.59;6145992;23;20214;-83
2022/12/17 13:28:58;;;;;;;22.48;10.65;;;;;;;-3.52;73.35;100460.47;6145887;23;20182;-82
2022/12/17 13:31:31;;;;;;;15.93;10.90;;;;;;;-3.59;73.42;100462.16;6146170;23;20179;-83
2022/12/17 13:34:06;;;;;;;18.27;10.68;;;;;;;-3.66;73.42;100468.06;6145593;23;20178;-82
2022/12/17 13:36:44;;;;;;;19.33;10.25;;;;;;;-3.74;73.48;100472.28;6146537;23;20317;-83
2022/12/17 13:39:20;;;;;;;29.60;12.55;;;;;;;-3.77;73.67;100462.84;6145897;23;20203;-83
2022/12/17 13:41:46;;;;;;;20.00;12.05;;;;;;;-3.71;73.65;100470.59;6145984;23;20189;-82
2022/12/17 13:44:23;;;;;;;21.23;11.63;;;;;;;-3.67;73.55;100477.50;6146362;23;20463;-83
2022/12/17 13:46:53;;;;;;;21.10;11.32;;;;;;;-3.64;73.91;100479.22;6146406;23;20525;-82
2022/12/17 13:49:24;;;;;;;22.58;10.32;;;;;;;-3.61;73.72;100471.53;6149017;23;20195;-83
2022/12/17 13:52:06;;;;;;;41.45;15.07;;;;;;;-3.53;73.59;100463.91;6148691;23;20197;-82
2022/12/17 13:54:31;;;;;;;18.95;9.27;;;;;;;-3.50;73.60;100461.34;6150050;23;20546;-83
2022/12/17 13:57:14;;;;;;;23.57;13.27;;;;;;;-3.46;73.46;100458.78;6147932;23;20687;-82
2022/12/17 13:59:40;;;;;;;19.15;9.90;;;;;;;-3.45;73.34;100465.66;6148727;23;20248;-82
2022/12/17 14:02:05;;;;;;;27.10;11.77;;;;;;;-3.46;73.37;100460.50;6122525;23;20254;-82
2022/12/17 14:04:31;;;;;;;19.43;12.13;;;;;;;-3.46;73.06;100465.66;6147946;23;20489;-82
2022/12/17 14:07:01;;;;;;;29.60;11.80;;;;;;;-3.51;73.26;100464.75;6146663;23;20657;-82
2022/12/17 14:09:33;;;;;;;21.83;10.50;;;;;;;-3.56;73.27;100465.59;6148137;23;20479;-82
2022/12/17 14:12:21;;;;;;;21.52;10.95;;;;;;;-3.57;73.42;100458.72;6147421;23;20175;-82
2022/12/17 14:14:54;;;;;;;25.40;12.50;;;;;;;-3.58;73.57;100469.00;6121056;23;20178;-82
2022/12/17 14:17:23;;;;;;;23.10;11.60;;;;;;;-3.56;73.61;100464.75;6147537;23;20640;-82
2022/12/17 14:19:57;;;;;;;29.15;14.18;;;;;;;-3.54;73.44;100464.72;6147301;23;20203;-83
2022/12/17 14:22:35;;;;;;;21.00;12.20;;;;;;;-3.52;73.77;100474.16;6148004;23;20209;-82
2022/12/17 14:25:01;;;;;;;28.75;12.70;;;;;;;-3.49;73.40;100469.06;6121633;23;21065;-82
2022/12/17 14:27:33;;;;;;;25.02;11.05;;;;;;;-3.48;73.72;100475.03;6145999;23;20616;-82
2022/12/17 14:29:59;;;;;;;25.35;11.15;;;;;;;-3.51;73.83;100475.03;6121826;23;20226;-82
2022/12/17 14:32:31;;;;;;;23.50;12.13;;;;;;;-3.53;73.82;100481.88;6148913;23;20171;-82
2022/12/17 14:34:57;;;;;;;31.83;19.33;;;;;;;-3.57;73.97;100465.56;6147191;23;20486;-82
2022/12/17 14:37:24;;;;;;;24.07;11.73;;;;;;;-3.64;74.17;100472.38;6148078;23;20512;-82
2022/12/17 14:39:53;;;;;;;23.92;13.85;;;;;;;-3.66;74.45;100480.91;6148473;23;20227;-82
2022/12/17 14:42:24;;;;;;;25.73;13.57;;;;;;;-3.70;74.43;100479.16;6148449;23;20190;-82
2022/12/17 14:44:53;;;;;;;32.53;13.50;;;;;;;-3.74;74.27;100485.13;6148490;23;20188;-82
2022/12/17 14:47:22;;;;;;;27.77;12.60;;;;;;;-3.77;74.27;100493.66;6145914;23;20196;-82
2022/12/17 14:50:03;;;;;;;22.73;11.02;;;;;;;-3.81;74.36;100497.03;6147024;23;20201;-82
2022/12/17 14:52:31;;;;;;;14.20;9.02;;;;;;;-3.84;74.72;100490.16;6122387;23;20183;-82
2022/12/17 14:54:57;;;;;;;23.00;11.80;;;;;;;-3.82;74.87;100496.19;6120934;23;20191;-81
2022/12/17 14:57:22;;;;;;;33.67;15.27;;;;;;;-3.81;74.83;100491.91;6121689;23;20227;-81
2022/12/17 14:59:49;;;;;;;27.50;15.47;;;;;;;-3.81;74.65;100494.47;6148571;23;20451;-81
2022/12/17 15:02:26;;;;;;;37.70;18.33;;;;;;;-3.80;74.96;100497.06;6147938;23;20503;-82
2022/12/17 15:04:59;;;;;;;41.45;22.33;;;;;;;-3.75;74.72;100496.22;6147103;23;20430;-82
2022/12/17 15:07:27;;;;;;;22.77;12.75;;;;;;;-3.75;75.13;100497.09;6147703;23;20187;-82
2022/12/17 15:09:54;;;;;;;25.73;11.75;;;;;;;-3.75;75.27;100496.22;6148058;23;20193;-82
2022/12/17 15:12:21;;;;;;;28.13;11.77;;;;;;;-3.77;74.93;100498.78;6148343;23;20680;-82
2022/12/17 15:14:47;;;;;;;26.17;11.90;;;;;;;-3.81;74.75;100503.06;6148356;23;20182;-81
2022/12/17 15:17:13;;;;;;;33.13;13.13;;;;;;;-3.83;74.95;100504.72;6149366;23;20210;-82
2022/12/17 15:19:38;;;;;;;29.30;12.80;;;;;;;-3.76;75.50;100512.47;6147567;23;20994;-83
2022/12/17 15:22:04;;;;;;;25.80;13.13;;;;;;;-3.70;75.16;100515.97;6120863;23;20176;-83
2022/12/17 15:24:30;;;;;;;19.40;12.47;;;;;;;-3.67;75.14;100517.69;6120840;23;20495;-83
2022/12/17 15:26:55;;;;;;;23.63;11.80;;;;;;;-3.57;75.30;100514.34;6146761;23;20172;-83
2022/12/17 15:29:23;;;;;;;39.07;15.67;;;;;;;-3.44;75.24;100515.31;6146771;23;20202;-83
2022/12/17 15:31:48;;;;;;;20.75;11.48;;;;;;;-3.37;74.80;100517.97;6147114;23;20190;-83
2022/12/17 15:34:14;;;;;;;23.97;14.00;;;;;;;-3.30;74.79;100518.00;6147333;23;20174;-83
2022/12/17 15:36:39;;;;;;;29.70;12.80;;;;;;;-3.34;74.40;100510.28;6147129;23;20714;-83
2022/12/17 15:39:05;;;;;;;20.33;11.20;;;;;;;-3.36;74.35;100506.81;6146832;23;20206;-83
2022/12/17 15:44:15;;;;;;;23.05;12.85;;;;;;;-3.42;74.62;100513.63;6147542;23;20240;-83
2022/12/17 15:46:40;;;;;;;23.77;12.37;;;;;;;-3.39;74.69;100514.50;6146941;23;20534;-83
2022/12/17 15:49:06;;;;;;;24.23;12.20;;;;;;;-3.35;74.45;100515.38;6146416;23;20713;-83
2022/12/17 15:51:31;;;;;;;23.63;11.33;;;;;;;-3.36;74.41;100516.25;6120804;23;20266;-83
2022/12/17 15:53:57;;;;;;;28.30;14.00;;;;;;;-3.42;74.73;100522.19;6146828;23;20206;-83
2022/12/17 15:56:27;;;;;;;22.07;11.80;;;;;;;-3.47;74.79;100526.44;6146625;23;20253;-83
2022/12/17 15:58:55;;;;;;;25.63;11.18;;;;;;;-3.50;74.81;100513.56;6146001;23;20261;-83
2022/12/17 16:01:21;;;;;;;17.80;11.27;;;;;;;-3.49;74.92;100514.44;6146264;23;20254;-83
2022/12/17 16:03:47;;;;;;;26.27;11.73;;;;;;;-3.46;74.85;100514.44;6146417;23;20263;-83
2022/12/17 16:06:12;;;;;;;22.73;12.43;;;;;;;-3.43;75.09;100504.19;6146494;23;20173;-83
2022/12/17 16:08:38;;;;;;;24.23;12.23;;;;;;;-3.42;74.72;100506.78;6146035;23;20170;-84
2022/12/17 16:11:09;;;;;;;24.87;13.13;;;;;;;-3.44;74.82;100511.03;6145966;23;20199;-83
2022/12/17 16:13:37;;;;;;;30.42;12.43;;;;;;;-3.48;74.64;100505.84;6146014;23;20662;-83
2022/12/17 16:16:04;;;;;;;26.58;15.68;;;;;;;-3.55;74.79;100497.25;6145527;23;20508;-83
2022/12/17 16:18:30;;;;;;;33.63;14.35;;;;;;;-3.57;74.88;100494.66;6145471;23;20529;-83
2022/12/17 16:21:06;;;;;;;26.25;12.65;;;;;;;-3.63;74.60;100501.47;6145788;23;20233;-83
2022/12/17 16:23:32;;;;;;;20.85;11.10;;;;;;;-3.69;74.97;100512.56;6145441;23;20198;-83
2022/12/17 16:26:00;;;;;;;22.60;11.40;;;;;;;-3.71;74.94;100514.25;5718575;23;5001641;-83
2022/12/17 16:28:26;;;;;;;22.33;13.40;;;;;;;-3.72;74.98;100506.53;6145307;23;20205;-83
2022/12/17 16:30:58;;;;;;;31.13;14.27;;;;;;;-3.68;75.07;100508.28;6145554;23;20195;-83
2022/12/17 16:33:23;;;;;;;32.67;13.75;;;;;;;-3.69;75.03;100515.13;6145550;23;20878;-83
2022/12/17 16:35:50;;;;;;;24.57;16.50;;;;;;;-3.71;75.03;100508.25;6145981;23;20181;-83
2022/12/17 16:38:16;;;;;;;28.33;13.55;;;;;;;-3.67;74.81;100515.13;6145699;23;20234;-83
2022/12/17 16:40:41;;;;;;;24.97;12.43;;;;;;;-3.63;75.23;100516.88;6145615;23;20223;-84
2022/12/17 16:43:07;;;;;;;40.93;16.13;;;;;;;-3.63;74.70;100509.19;6146545;23;20625;-83
2022/12/17 16:45:32;;;;;;;26.83;13.33;;;;;;;-3.66;74.64;100510.00;6146839;23;20183;-83
2022/12/17 16:47:58;;;;;;;18.70;10.67;;;;;;;-3.70;74.68;100515.09;6148094;23;20171;-83
2022/12/17 16:50:28;;;;;;;24.53;13.40;;;;;;;-3.73;74.62;100515.06;6149403;23;20193;-83
2022/12/17 16:52:57;;;;;;;24.15;12.30;;;;;;;-3.79;74.85;100519.31;6158558;23;20585;-83
2022/12/17 16:55:23;;;;;;;25.67;13.60;;;;;;;-3.80;75.03;100515.03;6160671;23;20571;-83
2022/12/17 16:57:48;;;;;;;23.87;12.37;;;;;;;-3.79;75.26;100515.88;6163660;23;20267;-83
2022/12/17 17:00:14;;;;;;;25.57;11.03;;;;;;;-3.79;74.75;100506.47;6162221;23;20246;-83
2022/12/17 17:02:40;;;;;;;27.77;12.53;;;;;;;-3.80;74.80;100517.59;6163536;23;20275;-83
2022/12/17 17:05:08;;;;;;;33.17;13.25;;;;;;;-3.78;74.96;100518.47;6137419;23;20195;-83
2022/12/17 17:07:34;;;;;;;25.15;11.32;;;;;;;-3.86;74.29;100509.84;6158521;23;20186;-83
2022/12/17 17:09:59;;;;;;;15.53;10.37;;;;;;;-3.96;74.94;100497.75;6157854;23;20204;-83
2022/12/17 17:12:25;;;;;;;29.33;12.20;;;;;;;-4.00;74.94;100506.25;6132336;23;20212;-83
2022/12/17 17:14:51;;;;;;;16.00;8.38;;;;;;;-4.02;74.88;100507.97;6161436;23;20182;-83
2022/12/17 17:17:16;;;;;;;21.63;11.63;;;;;;;-4.04;75.56;100513.06;6160588;23;20220;-83
2022/12/17 17:19:41;;;;;;;28.93;14.27;;;;;;;-4.03;75.37;100512.22;6161276;23;20201;-83
2022/12/17 17:22:07;;;;;;;26.77;14.67;;;;;;;-3.98;75.42;100512.28;6133728;23;20175;-83
2022/12/17 17:24:33;;;;;;;25.00;13.20;;;;;;;-3.97;75.12;100510.56;6161187;23;20225;-82
2022/12/17 17:26:59;;;;;;;29.67;11.40;;;;;;;-4.03;75.41;100506.25;6158190;23;20168;-82
2022/12/17 17:29:24;;;;;;;20.67;11.80;;;;;;;-4.10;75.60;100512.16;6152793;23;20204;-83
2022/12/17 17:31:50;;;;;;;29.53;12.90;;;;;;;-4.14;75.56;100515.53;6150356;23;20560;-83
2022/12/17 17:34:24;;;;;;;37.83;14.50;;;;;;;-4.14;75.63;100512.97;6123733;23;20227;-82
2022/12/17 17:36:50;;;;;;;36.92;19.52;;;;;;;-4.17;75.61;100515.50;6152380;23;20529;-83
2022/12/17 17:39:15;;;;;;;31.67;15.37;;;;;;;-4.34;76.14;100526.44;6150696;23;20269;-82
2022/12/17 17:41:41;;;;;;;26.53;13.30;;;;;;;-4.39;76.06;100525.53;6150482;23;20443;-83
2022/12/17 17:44:09;;;;;;;37.13;12.83;;;;;;;-4.40;76.20;100523.81;6155265;23;20671;-82
2022/12/17 17:46:35;;;;;;;28.00;12.52;;;;;;;-4.38;76.71;100529.78;6159009;23;20235;-84
2022/12/17 17:49:03;;;;;;;32.83;12.07;;;;;;;-4.33;76.30;100533.28;6156914;23;20181;-81
2022/12/17 17:51:33;;;;;;;35.15;12.70;;;;;;;-4.23;76.64;100539.38;6153728;23;20164;-82
2022/12/17 17:54:00;;;;;;;30.60;14.02;;;;;;;-4.13;76.78;100538.66;6126585;23;20174;-83
2022/12/17 17:56:49;;;;;;;34.60;14.30;;;;;;;-3.99;76.14;100540.50;6156162;23;20240;-83
2022/12/17 17:59:18;;;;;;;23.73;13.07;;;;;;;-3.97;75.79;100541.34;6141929;23;20218;-81
2022/12/17 18:01:48;;;;;;;28.58;14.27;;;;;;;-3.98;75.34;100543.06;6148995;23;20274;-81
2022/12/17 18:04:17;;;;;;;32.40;15.40;;;;;;;-3.92;75.94;100544.84;6153377;23;20171;-81
2022/12/17 18:06:45;;;;;;;35.75;15.40;;;;;;;-3.84;76.48;100551.75;6150155;23;20178;-81
2022/12/17 18:09:12;;;;;;;31.77;14.50;;;;;;;-3.76;75.96;100548.41;6150142;23;20191;-80
2022/12/17 18:11:39;;;;;;;30.35;17.83;;;;;;;-3.72;76.08;100560.47;6149972;23;20181;-81
2022/12/17 18:14:06;;;;;;;38.30;14.95;;;;;;;-3.69;75.95;100557.91;6150807;23;20227;-82
2022/12/17 18:16:36;;;;;;;38.13;15.88;;;;;;;-3.66;75.72;100563.06;6150868;23;20173;-81
2022/12/17 18:19:07;;;;;;;26.27;15.30;;;;;;;-3.63;75.92;100575.94;6150880;23;20662;-84
2022/12/17 18:21:33;;;;;;;38.58;17.88;;;;;;;-3.56;75.74;100585.44;6127450;23;20556;-81
2022/12/17 18:24:02;;;;;;;37.20;10.30;;;;;;;-3.53;75.81;100575.19;6150758;23;20164;-81
2022/12/17 18:26:30;;;;;;;30.88;14.00;;;;;;;-3.52;75.61;100571.75;6152289;23;20395;-85
2022/12/17 18:29:01;;;;;;;32.30;17.95;;;;;;;-3.49;75.83;100583.75;6151857;23;20189;-83
2022/12/17 18:31:28;;;;;;;37.03;17.83;;;;;;;-3.44;75.50;100582.09;6153700;23;20171;-85
2022/12/17 18:33:59;;;;;;;29.15;17.08;;;;;;;-3.37;75.63;100584.75;6154541;23;20165;-81
2022/12/17 18:36:28;;;;;;;29.80;12.48;;;;;;;-3.38;75.24;100585.56;6153838;23;20411;-83
2022/12/17 18:38:55;;;;;;;41.28;17.08;;;;;;;-3.40;75.46;100592.44;6153759;23;20165;-81
2022/12/17 18:44:05;;;;;;;33.90;18.13;;;;;;;-3.40;75.47;100591.56;6153971;23;20171;-81
2022/12/17 18:46:32;;;;;;;45.78;17.77;;;;;;;-3.43;75.15;100599.22;6128765;23;20183;-81
2022/12/17 18:49:01;;;;;;;41.20;17.08;;;;;;;-3.50;75.10;100594.91;6154819;23;20173;-81
2022/12/17 18:51:27;;;;;;;41.85;15.88;;;;;;;-3.59;75.34;100587.97;6154981;23;20701;-81
2022/12/17 18:53:59;;;;;;;30.00;12.00;;;;;;;-3.69;75.21;100594.72;6154818;23;20175;-81
2022/12/17 18:56:26;;;;;;;30.17;14.52;;;;;;;-3.74;75.04;100600.66;6155329;23;20181;-81
2022/12/17 18:58:53;;;;;;;27.88;15.77;;;;;;;-3.81;75.56;100598.03;6153202;23;20223;-82
2022/12/17 19:01:27;;;;;;;48.00;15.32;;;;;;;-3.92;75.61;100591.88;6153698;23;20238;-81
2022/12/17 19:03:53;;;;;;;45.90;19.25;;;;;;;-4.02;75.76;100590.94;6153504;23;20424;-81
2022/12/17 19:06:19;;;;;;;39.60;16.73;;;;;;;-4.05;76.17;100601.19;6154317;23;20519;-81
2022/12/17 19:08:45;;;;;;;32.33;16.40;;;;;;;-4.06;75.65;100598.56;6153826;23;20174;-81
2022/12/17 19:11:16;;;;;;;34.30;15.55;;;;;;;-4.06;75.94;100608.84;6153728;23;20203;-81
2022/12/17 19:13:43;;;;;;;42.88;19.38;;;;;;;-4.02;76.41;100606.34;6154926;23;20197;-80
2022/12/17 19:16:12;;;;;;;36.53;14.10;;;;;;;-3.92;76.35;100609.84;6152554;23;20185;-81
2022/12/17 19:18:38;;;;;;;36.08;18.23;;;;;;;-3.84;76.10;100615.06;6154631;23;20432;-80
2022/12/17 19:21:06;;;;;;;35.40;17.00;;;;;;;-3.81;75.48;100620.25;6152884;23;20253;-81
2022/12/17 19:23:32;;;;;;;30.10;16.55;;;;;;;-3.83;75.49;100627.94;6152677;23;20184;-81
2022/12/17 19:26:12;;;;;;;23.88;16.10;;;;;;;-3.78;75.91;100617.69;6153831;23;20178;-81
2022/12/17 19:28:43;;;;;;;38.38;16.63;;;;;;;-3.79;75.39;100629.69;6153583;23;20171;-82
2022/12/17 19:31:09;;;;;;;35.22;14.02;;;;;;;-3.78;75.77;100626.28;6152608;23;20186;-81
2022/12/17 19:33:38;;;;;;;31.83;14.43;;;;;;;-3.76;75.75;100626.28;6153236;23;20169;-81
2022/12/17 19:36:10;;;;;;;50.75;19.48;;;;;;;-3.71;75.65;100627.22;6152305;23;20534;-82
2022/12/17 19:38:36;;;;;;;40.80;16.85;;;;;;;-3.71;75.26;100632.34;6127190;23;20287;-81
2022/12/17 19:41:10;;;;;;;28.00;13.67;;;;;;;-3.74;75.35;100631.47;6151559;23;20647;-81
2022/12/17 19:43:36;;;;;;;34.92;16.05;;;;;;;-3.83;75.48;100635.66;6153139;23;20452;-82
2022/12/17 19:46:07;;;;;;;34.15;15.43;;;;;;;-3.87;75.57;100639.00;6153777;23;20192;-81
2022/12/17 19:48:34;;;;;;;31.70;16.88;;;;;;;-3.87;75.64;100628.75;6152520;23;20221;-81
2022/12/17 19:51:01;;;;;;;29.65;13.73;;;;;;;-3.85;75.69;100626.19;6152684;23;20191;-80
2022/12/17 19:53:27;;;;;;;42.45;13.02;;;;;;;-3.85;75.84;100629.63;6152729;23;20172;-81
2022/12/17 19:55:54;;;;;;;30.98;12.85;;;;;;;-3.85;75.65;100634.75;6153286;23;20459;-81
2022/12/17 19:58:22;;;;;;;34.90;13.43;;;;;;;-3.90;75.23;100646.66;6152173;23;20197;-81
2022/12/17 20:00:47;;;;;;;31.20;15.38;;;;;;;-3.94;75.56;100642.38;6151150;23;20386;-82
2022/12/17 20:03:13;;;;;;;23.13;14.10;;;;;;;-3.93;75.47;100631.25;6150996;23;20175;-82
2022/12/17 20:05:42;;;;;;;36.03;14.77;;;;;;;-3.89;75.71;100620.19;6151025;23;20173;-81
2022/12/17 20:08:07;;;;;;;36.78;15.93;;;;;;;-3.84;75.64;100627.91;6151532;23;20151;-82
2022/12/17 20:10:32;;;;;;;39.13;16.83;;;;;;;-3.82;75.39;100628.81;6151300;23;20218;-82
2022/12/17 20:12:58;;;;;;;32.63;13.97;;;;;;;-3.80;75.33;100627.97;6150684;23;20499;-81
2022/12/17 20:15:23;;;;;;;25.33;12.87;;;;;;;-3.83;75.11;100638.22;6152148;23;20175;-82
2022/12/17 20:17:49;;;;;;;22.40;12.00;;;;;;;-3.86;74.99;100648.44;6151933;23;20249;-81
2022/12/17 20:20:14;;;;;;;27.93;15.90;;;;;;;-3.89;75.26;100639.81;6150867;23;20209;-81
2022/12/17 20:22:40;;;;;;;28.27;13.67;;;;;;;-3.92;75.21;100640.66;6152272;23;20258;-82
2022/12/17 20:25:08;;;;;;;30.13;12.00;;;;;;;-4.00;75.11;100634.56;6151869;23;20378;-81
2022/12/17 20:27:33;;;;;;;24.92;12.70;;;;;;;-4.08;74.92;100634.50;6152381;23;20211;-81
2022/12/17 20:29:59;;;;;;;33.27;15.83;;;;;;;-4.18;75.25;100632.66;6152272;23;20180;-81
2022/12/17 20:32:24;;;;;;;29.23;13.20;;;;;;;-4.27;75.13;100641.06;6152088;23;20184;-81
2022/12/17 20:34:50;;;;;;;28.30;12.20;;;;;;;-4.42;75.63;100637.47;6153007;23;20168;-81
2022/12/17 20:37:16;;;;;;;24.13;9.67;;;;;;;-4.45;75.94;100640.84;6151768;23;20186;-81
2022/12/17 20:39:41;;;;;;;22.03;10.97;;;;;;;-4.43;75.81;100644.28;6151534;23;20470;-82
2022/12/17 20:42:08;;;;;;;40.37;15.67;;;;;;;-4.40;76.18;100631.53;6158932;23;20391;-81
2022/12/17 20:44:33;;;;;;;13.00;7.32;;;;;;;-4.41;76.16;100632.34;6151698;23;20155;-81
2022/12/17 20:47:00;;;;;;;22.63;12.57;;;;;;;-4.42;75.72;100619.50;6152018;23;20173;-81
2022/12/17 20:49:25;;;;;;;24.73;11.45;;;;;;;-4.43;76.06;100612.66;6152525;23;20196;-81
2022/12/17 20:51:51;;;;;;;22.90;11.97;;;;;;;-4.42;76.08;100610.13;6151681;23;20417;-81
2022/12/17 20:54:17;;;;;;;29.57;15.30;;;;;;;-4.40;76.14;100613.56;6152114;23;20181;-81
2022/12/17 20:56:42;;;;;;;14.90;11.23;;;;;;;-4.37;75.67;100616.16;6151978;23;20173;-81
2022/12/17 20:59:12;;;;;;;35.33;12.23;;;;;;;-4.33;76.27;100632.44;6125596;23;20206;-81
2022/12/17 21:01:37;;;;;;;37.53;15.60;;;;;;;-4.29;76.00;100636.78;6151189;23;20277;-81
2022/12/17 21:04:06;;;;;;;30.60;13.87;;;;;;;-4.26;75.84;100627.44;6151521;23;20535;-81
2022/12/17 21:06:36;;;;;;;31.15;12.68;;;;;;;-4.22;75.75;100624.03;6126022;23;20634;-81
2022/12/17 21:09:03;;;;;;;26.45;12.50;;;;;;;-4.20;76.07;100623.22;6151952;23;20188;-81
2022/12/17 21:11:30;;;;;;;33.28;14.00;;;;;;;-4.18;76.09;100624.09;6154838;23;20196;-82
2022/12/17 21:13:56;;;;;;;32.53;12.95;;;;;;;-4.19;75.62;100614.66;6156147;23;20171;-82
2022/12/17 21:16:27;;;;;;;39.88;16.27;;;;;;;-4.16;75.88;100617.25;6156200;23;20169;-81
2022/12/17 21:18:54;;;;;;;21.67;10.25;;;;;;;-4.13;75.62;100619.88;6156165;23;20216;-81
2022/12/17 21:21:23;;;;;;;38.08;14.00;;;;;;;-4.12;75.70;100616.47;6156634;23;20180;-81
2022/12/17 21:23:49;;;;;;;37.60;17.05;;;;;;;-4.06;75.75;100616.53;6157014;23;20298;-82
2022/12/17 21:26:18;;;;;;;31.25;13.40;;;;;;;-4.02;76.07;100613.19;6158194;23;20499;-81
2022/12/17 21:28:47;;;;;;;28.90;11.38;;;;;;;-4.02;75.46;100614.03;6157933;23;20208;-81
2022/12/17 21:31:39;;;;;;;23.45;16.88;;;;;;;-4.05;75.44;100628.50;6158550;23;20215;-82
2022/12/17 21:34:07;;;;;;;38.28;17.13;;;;;;;-4.15;75.55;100624.13;6158531;23;20190;-81
2022/12/17 21:36:34;;;;;;;26.13;13.40;;;;;;;-4.27;75.46;100619.69;6157714;23;20491;-81
2022/12/17 21:39:00;;;;;;;21.40;13.60;;;;;;;-4.32;75.82;100635.03;6158088;23;20198;-81
2022/12/17 21:41:31;;;;;;;24.92;13.60;;;;;;;-4.31;76.21;100643.59;6155380;23;20643;-81
2022/12/17 21:44:03;;;;;;;36.10;11.55;;;;;;;-4.29;76.22;100641.91;6157023;23;20954;-82
2022/12/17 21:46:29;;;;;;;29.08;15.52;;;;;;;-4.28;76.10;100629.09;6157130;23;20662;-82
2022/12/17 21:48:59;;;;;;;32.80;15.18;;;;;;;-4.27;76.36;100640.22;6156975;23;20250;-81
2022/12/17 21:51:25;;;;;;;27.27;13.10;;;;;;;-4.28;75.80;100638.50;6156964;23;20417;-82
2022/12/17 21:53:53;;;;;;;32.30;15.32;;;;;;;-4.32;75.82;100632.47;6158965;23;20178;-82
2022/12/17 21:56:19;;;;;;;23.75;11.90;;;;;;;-4.35;75.63;100629.84;6158385;23;20166;-81
2022/12/17 21:58:45;;;;;;;25.98;14.85;;;;;;;-4.45;75.87;100631.44;6131297;23;20196;-81
2022/12/17 22:01:17;;;;;;;25.58;10.93;;;;;;;-4.54;76.26;100631.31;6158823;23;20197;-81
2022/12/17 22:03:45;;;;;;;34.10;13.18;;;;;;;-4.57;76.21;100630.41;6153150;23;20767;-81
2022/12/17 22:06:14;;;;;;;33.13;13.73;;;;;;;-4.57;76.54;100631.25;6154878;23;20190;-82
2022/12/17 22:08:40;;;;;;;32.83;12.98;;;;;;;-4.55;76.50;100642.41;6153800;23;20269;-82
2022/12/17 22:11:21;;;;;;;25.02;13.85;;;;;;;-4.60;76.42;100643.19;6153931;23;20223;-81
2022/12/17 22:14:02;;;;;;;36.67;15.00;;;;;;;-4.67;75.94;100637.97;6154385;23;20167;-81
2022/12/17 22:16:45;;;;;;;35.03;11.07;;;;;;;-4.72;76.73;100628.50;6153805;23;20184;-81
2022/12/17 22:19:17;;;;;;;17.60;9.45;;;;;;;-4.84;76.75;100641.97;6163192;23;20503;-81
2022/12/17 22:21:45;;;;;;;20.83;11.20;;;;;;;-4.86;76.93;100637.66;6161939;23;20594;-82
2022/12/17 22:24:13;;;;;;;19.25;10.45;;;;;;;-4.86;77.04;100637.66;6162433;23;20183;-82
2022/12/17 22:26:39;;;;;;;28.63;14.27;;;;;;;-4.83;77.44;100635.13;6160124;23;20266;-82
2022/12/17 22:29:04;;;;;;;30.43;13.73;;;;;;;-4.81;77.08;100642.00;6160770;23;20199;-81
2022/12/17 22:34:13;;;;;;;49.80;18.90;;;;;;;-4.81;77.32;100636.88;6160259;23;20418;-81
2022/12/17 22:36:40;;;;;;;32.73;15.77;;;;;;;-4.79;77.01;100639.50;6160044;23;20434;-83
2022/12/17 22:39:09;;;;;;;37.90;13.30;;;;;;;-4.80;77.07;100641.19;6161075;23;20258;-82
2022/12/17 22:44:19;;;;;;;19.73;10.38;;;;;;;-4.76;77.09;100657.47;6160985;23;20488;-81
2022/12/17 22:46:44;;;;;;;27.80;13.60;;;;;;;-4.71;77.35;100671.22;6162386;23;20185;-82
2022/12/17 22:49:10;;;;;;;21.03;10.43;;;;;;;-4.67;77.22;100679.00;6155650;23;20206;-82
2022/12/17 22:51:36;;;;;;;32.60;13.25;;;;;;;-4.69;76.62;100667.84;6159677;23;20291;-81
2022/12/17 22:54:04;;;;;;;33.33;11.17;;;;;;;-4.77;76.25;100664.31;6159620;23;20179;-81
2022/12/17 22:56:30;;;;;;;29.88;13.25;;;;;;;-4.81;76.54;100665.06;6159041;23;20833;-81
2022/12/17 22:58:55;;;;;;;39.13;12.80;;;;;;;-4.86;76.89;100670.97;6159468;23;20210;-80
2022/12/17 23:01:21;;;;;;;26.73;11.90;;;;;;;-4.87;76.95;100677.81;6160037;23;20269;-81
2022/12/17 23:03:46;;;;;;;34.93;11.03;;;;;;;-4.84;77.13;100677.84;6160755;23;20409;-81
2022/12/17 23:06:15;;;;;;;33.37;13.00;;;;;;;-4.76;77.28;100680.53;6161184;23;20182;-81
2022/12/17 23:08:41;;;;;;;25.33;12.07;;;;;;;-4.68;76.82;100679.81;6161180;23;20171;-82
2022/12/17 23:11:09;;;;;;;29.00;11.90;;;;;;;-4.59;77.32;100665.41;6161571;23;20529;-81
2022/12/17 23:13:35;;;;;;;22.80;13.10;;;;;;;-4.53;76.85;100662.97;6161854;23;20613;-82
2022/12/17 23:16:02;;;;;;;23.67;11.87;;;;;;;-4.51;76.46;100659.56;6161154;23;20294;-81
2022/12/17 23:18:28;;;;;;;25.65;11.13;;;;;;;-4.50;76.07;100648.47;6161292;23;20517;-81
2022/12/17 23:20:53;;;;;;;29.07;13.07;;;;;;;-4.50;76.19;100645.03;6159575;23;20689;-81
2022/12/17 23:23:19;;;;;;;34.97;16.63;;;;;;;-4.55;76.21;100642.41;6160225;23;20440;-80
2022/12/17 23:25:44;;;;;;;21.90;12.80;;;;;;;-4.59;76.54;100653.47;6160938;23;20260;-81
2022/12/17 23:28:09;;;;;;;31.43;11.10;;;;;;;-4.59;76.36;100666.28;6156791;23;20182;-81
2022/12/17 23:30:36;;;;;;;31.60;14.00;;;;;;;-4.59;76.51;100667.97;6159669;23;20198;-81
2022/12/17 23:33:02;;;;;;;47.30;16.52;;;;;;;-4.61;76.34;100659.41;6161408;23;20208;-81
2022/12/17 23:35:28;;;;;;;32.50;14.10;;;;;;;-4.64;76.55;100659.34;6161495;23;20178;-82
2022/12/17 23:37:53;;;;;;;29.00;11.57;;;;;;;-4.65;76.60;100648.22;6160812;23;20743;-82
2022/12/17 23:40:20;;;;;;;26.93;14.70;;;;;;;-4.65;76.68;100652.50;6160814;23;20298;-81
2022/12/17 23:42:45;;;;;;;33.13;14.68;;;;;;;-4.63;76.57;100651.69;6161378;23;20185;-80
2022/12/17 23:45:11;;;;;;;25.37;11.60;;;;;;;-4.61;76.59;100649.16;6161468;23;20190;-81
2022/12/17 23:47:37;;;;;;;31.10;12.83;;;;;;;-4.61;76.77;100650.03;6161844;23;20186;-81
2022/12/17 23:50:04;;;;;;;25.23;12.88;;;;;;;-4.58;76.94;100649.22;6161820;23;20513;-81
2022/12/17 23:52:30;;;;;;;14.93;8.50;;;;;;;-4.55;76.68;100644.13;6160377;23;20205;-81
2022/12/17 23:54:55;;;;;;;33.03;13.37;;;;;;;-4.56;76.87;100638.13;6160646;23;20549;-81
2022/12/17 23:57:21;;;;;;;33.80;13.33;;;;;;;-4.58;77.02;100644.94;6134846;23;20438;-83
2022/12/17 23:59:46;;;;;;;37.23;14.77;;;;;;;-4.56;76.63;100634.72;6161376;23;20350;-82
